Time;durP1;ratioP1;P1;durP2;ratioP2;P2;SDS_P1;SDS_P2;PMS_P1;PMS_P2;Temp;Humidity;BMP_temperature;BMP_pressure;BME280_temperature;BME280_humidity;BME280_pressure;Samples;Min_cycle;Max_cycle;Signal;HPM_P1;HPM_P2
2023/02/20 00:01:55;;;;;;;0.00;0.00;;;7.60;99.90;;;;;;6147558;23;20005;-89
2023/02/20 00:04:21;;;;;;;0.10;0.10;;;;;;;;;;6147036;23;20023;-89
2023/02/20 00:06:48;;;;;;;0.00;0.00;;;;;;;;;;6175441;23;20029;-89
2023/02/20 00:09:14;;;;;;;0.10;0.10;;;;;;;;;;6172518;23;20005;-90
2023/02/20 00:11:39;;;;;;;0.10;0.10;;;7.50;99.90;;;;;;6174335;23;20067;-89
2023/02/20 00:14:05;;;;;;;0.10;0.10;;;7.50;99.90;;;;;;6148866;23;20386;-89
2023/02/20 00:16:30;;;;;;;0.10;0.10;;;7.50;99.90;;;;;;6150983;23;20006;-88
2023/02/20 00:18:56;;;;;;;0.10;0.10;;;;;;;;;;6148760;23;20013;-89
2023/02/20 00:21:22;;;;;;;0.10;0.10;;;7.40;99.90;;;;;;6174567;23;20006;-89
2023/02/20 00:23:48;;;;;;;0.10;0.10;;;;;;;;;;6148728;23;20430;-90
2023/02/20 00:26:14;;;;;;;0.10;0.10;;;7.40;99.90;;;;;;6172577;23;20006;-90
2023/02/20 00:28:41;;;;;;;0.10;0.10;;;7.40;99.90;;;;;;6149619;23;20001;-89
2023/02/20 00:31:08;;;;;;;0.10;0.10;;;7.40;99.90;;;;;;6150816;23;20009;-89
2023/02/20 00:33:33;;;;;;;0.10;0.10;;;7.40;99.90;;;;;;6151217;23;20431;-89
2023/02/20 00:35:59;;;;;;;0.10;0.10;;;7.50;99.90;;;;;;6149097;23;20008;-90
2023/02/20 00:38:25;;;;;;;0.10;0.10;;;;;;;;;;6151513;23;20064;-88
2023/02/20 00:40:50;;;;;;;0.10;0.10;;;7.60;99.90;;;;;;6172580;23;20013;-90
2023/02/20 00:43:16;;;;;;;0.00;0.00;;;7.50;99.90;;;;;;6148595;23;20006;-89
2023/02/20 00:45:42;;;;;;;0.10;0.10;;;;;;;;;;6150732;23;20009;-90
2023/02/20 00:48:08;;;;;;;0.10;0.10;;;;;;;;;;6173752;23;20367;-89
2023/02/20 00:50:34;;;;;;;0.10;0.10;;;;;;;;;;6173424;23;20088;-89
2023/02/20 00:53:00;;;;;;;0.10;0.10;;;;;;;;;;6173056;23;20006;-89
2023/02/20 00:55:25;;;;;;;0.10;0.10;;;;;;;;;;6172115;23;20016;-89
2023/02/20 00:57:51;;;;;;;0.10;0.10;;;;;;;;;;6173246;23;20033;-89
2023/02/20 01:00:28;;;;;;;0.10;0.10;;;7.50;99.90;;;;;;6171710;23;20032;-89
2023/02/20 01:02:54;;;;;;;0.10;0.10;;;7.50;99.90;;;;;;6173179;23;20001;-88
2023/02/20 01:05:20;;;;;;;0.10;0.10;;;7.40;99.90;;;;;;6173422;23;20006;-89
2023/02/20 01:07:46;;;;;;;0.10;0.10;;;7.40;99.90;;;;;;6149229;23;20076;-89
2023/02/20 01:10:12;;;;;;;0.10;0.10;;;7.40;99.90;;;;;;6149119;23;20145;-90
2023/02/20 01:12:38;;;;;;;0.10;0.10;;;7.40;99.90;;;;;;6173230;23;20010;-89
2023/02/20 01:15:05;;;;;;;0.10;0.10;;;7.40;99.90;;;;;;6149058;23;20010;-89
2023/02/20 01:17:31;;;;;;;0.10;0.10;;;7.40;99.90;;;;;;6173821;23;20465;-89
2023/02/20 01:19:56;;;;;;;0.10;0.10;;;7.40;99.90;;;;;;6151978;23;20006;-90
2023/02/20 01:22:22;;;;;;;0.10;0.10;;;;;;;;;;6145372;23;20101;-88
2023/02/20 01:24:48;;;;;;;0.10;0.10;;;;;;;;;;6149630;23;20004;-90
2023/02/20 01:27:14;;;;;;;0.10;0.10;;;;;;;;;;6171574;23;20001;-89
2023/02/20 01:29:40;;;;;;;0.10;0.10;;;;;;;;;;6175056;23;19997;-88
2023/02/20 01:32:06;;;;;;;0.10;0.10;;;;;;;;;;6173756;23;20525;-89
2023/02/20 01:34:32;;;;;;;0.10;0.10;;;;;;;;;;6150898;23;20005;-88
2023/02/20 01:36:59;;;;;;;0.10;0.10;;;;;;;;;;6172483;23;20004;-87
2023/02/20 01:39:27;;;;;;;0.10;0.10;;;7.30;99.90;;;;;;6172978;23;19998;-89
2023/02/20 01:41:56;;;;;;;0.10;0.10;;;7.20;99.90;;;;;;6172838;23;20339;-89
2023/02/20 01:44:27;;;;;;;0.10;0.10;;;7.20;99.90;;;;;;6147310;23;20324;-89
2023/02/20 01:46:55;;;;;;;0.00;0.00;;;7.30;99.90;;;;;;6175572;23;20080;-90
2023/02/20 01:49:33;;;;;;;0.10;0.10;;;7.10;99.90;;;;;;6150231;23;20005;-90
2023/02/20 01:52:09;;;;;;;0.10;0.10;;;7.30;99.90;;;;;;6175328;23;20031;-89
2023/02/20 01:54:39;;;;;;;0.10;0.10;;;7.30;99.90;;;;;;6174402;23;20348;-90
2023/02/20 01:57:08;;;;;;;0.10;0.10;;;7.30;99.90;;;;;;6149354;23;20390;-89
2023/02/20 01:59:38;;;;;;;0.10;0.10;;;7.30;99.90;;;;;;6176184;23;20009;-89
2023/02/20 02:02:05;;;;;;;0.10;0.10;;;7.30;99.90;;;;;;6174105;23;20012;-90
2023/02/20 02:04:32;;;;;;;0.10;0.10;;;7.30;99.90;;;;;;6175633;23;20160;-89
2023/02/20 02:06:58;;;;;;;0.10;0.10;;;;;;;;;;6173597;23;20188;-89
2023/02/20 02:09:36;;;;;;;0.10;0.10;;;7.20;99.90;;;;;;6173965;23;20357;-89
2023/02/20 04:31:52;;;;;;;0.10;0.10;;;;;;;;;;6157904;23;20021;-94
2023/02/20 04:34:18;;;;;;;0.10;0.10;;;;;;;;;;6180642;23;20032;-95
2023/02/20 04:36:44;;;;;;;0.10;0.10;;;;;;;;;;6182297;23;20140;-95
2023/02/20 04:39:10;;;;;;;0.10;0.10;;;;;;;;;;6179947;23;20020;-94
2023/02/20 04:41:36;;;;;;;0.10;0.10;;;;;;;;;;6180012;23;20005;-94
2023/02/20 06:20:04;;;;;;;0.10;0.10;;;7.20;99.90;;;;;;6135259;23;20029;-91
2023/02/20 06:25:08;;;;;;;0.10;0.10;;;7.10;99.90;;;;;;6145219;23;20026;-93
2023/02/20 06:27:34;;;;;;;0.10;0.10;;;;;;;;;;6205851;23;20037;-90
2023/02/20 06:30:00;;;;;;;0.10;0.10;;;;;;;;;;6205670;23;20007;-91
2023/02/20 06:32:26;;;;;;;0.10;0.10;;;;;;;;;;6205948;23;20017;-92
2023/02/20 06:34:52;;;;;;;0.10;0.10;;;;;;;;;;6206853;23;20012;-92
2023/02/20 08:02:39;;;;;;;0.10;0.10;;;;;;;;;;6121350;23;20030;-87
2023/02/20 08:05:05;;;;;;;0.10;0.10;;;7.50;99.90;;;;;;6095518;23;20490;-89
2023/02/20 08:07:31;;;;;;;0.10;0.10;;;;;;;;;;6119689;23;20005;-89
2023/02/20 08:09:56;;;;;;;0.10;0.10;;;;;;;;;;6096449;23;20435;-88
2023/02/20 08:12:22;;;;;;;0.10;0.10;;;;;;;;;;6118986;23;20338;-88
2023/02/20 08:14:52;;;;;;;0.10;0.10;;;7.60;99.90;;;;;;6120996;23;20002;-88
2023/02/20 08:17:19;;;;;;;0.10;0.10;;;;;;;;;;6122298;23;20018;-89
2023/02/20 08:19:45;;;;;;;0.10;0.10;;;;;;;;;;6118977;23;20004;-88
2023/02/20 08:22:11;;;;;;;0.10;0.10;;;;;;;;;;6120929;23;20030;-89
2023/02/20 08:24:36;;;;;;;0.10;0.10;;;7.60;99.90;;;;;;6119426;23;20400;-89
2023/02/20 08:27:02;;;;;;;0.10;0.10;;;7.70;99.90;;;;;;6118268;23;20010;-87
2023/02/20 08:29:28;;;;;;;0.10;0.10;;;7.70;99.90;;;;;;6094543;23;20013;-88
2023/02/20 08:31:53;;;;;;;0.10;0.10;;;7.70;99.90;;;;;;6120026;23;20014;-90
2023/02/20 08:34:19;;;;;;;0.10;0.10;;;;;;;;;;6119063;23;19998;-89
2023/02/20 08:36:45;;;;;;;0.10;0.10;;;;;;;;;;6118648;23;20328;-89
2023/02/20 08:39:11;;;;;;;0.10;0.10;;;;;;;;;;6116882;23;19998;-89
2023/02/20 08:41:44;;;;;;;0.10;0.10;;;7.70;99.90;;;;;;6116822;23;20029;-89
2023/02/20 08:44:10;;;;;;;0.10;0.10;;;7.80;99.90;;;;;;6093736;23;20094;-89
2023/02/20 08:46:36;;;;;;;0.10;0.10;;;7.70;99.90;;;;;;6095242;23;20155;-89
2023/02/20 08:49:02;;;;;;;0.10;0.10;;;7.70;99.90;;;;;;6095666;23;20002;-88
2023/02/20 08:51:27;;;;;;;0.00;0.00;;;7.80;99.90;;;;;;6120886;23;20006;-88
2023/02/20 08:53:53;;;;;;;0.10;0.10;;;7.90;99.90;;;;;;6120595;23;20010;-88
2023/02/20 08:56:20;;;;;;;0.10;0.10;;;8.00;99.90;;;;;;6116259;23;20427;-89
2023/02/20 08:58:45;;;;;;;0.10;0.10;;;8.00;99.90;;;;;;6094291;23;20029;-88
2023/02/20 09:01:11;;;;;;;0.10;0.10;;;;;;;;;;6132047;23;20025;-88
2023/02/20 09:03:40;;;;;;;0.10;0.10;;;;;;;;;;6120453;23;20497;-89
2023/02/20 09:06:06;;;;;;;0.10;0.10;;;;;;;;;;6118546;23;20009;-89
2023/02/20 09:08:32;;;;;;;0.10;0.10;;;;;;;;;;6120320;23;20358;-88
2023/02/20 09:10:58;;;;;;;0.10;0.10;;;;;;;;;;6119164;23;20002;-88
2023/02/20 09:13:24;;;;;;;0.10;0.10;;;;;;;;;;6118718;23;20001;-86
2023/02/20 09:15:49;;;;;;;0.10;0.10;;;7.90;99.90;;;;;;6124387;23;20006;-89
2023/02/20 09:18:15;;;;;;;0.10;0.10;;;;;;;;;;6120677;23;20002;-88
2023/02/20 09:20:41;;;;;;;0.10;0.10;;;;;;;;;;6119327;23;20006;-88
2023/02/20 09:23:07;;;;;;;0.10;0.10;;;;;;;;;;6120123;23;20006;-88
2023/02/20 09:25:34;;;;;;;0.10;0.10;;;;;;;;;;6118085;23;20347;-88
2023/02/20 09:28:00;;;;;;;0.10;0.10;;;;;;;;;;6118639;23;20013;-89
2023/02/20 09:30:26;;;;;;;0.10;0.10;;;8.10;99.90;;;;;;6121945;23;20343;-88
2023/02/20 09:32:53;;;;;;;0.10;0.10;;;8.20;99.90;;;;;;6126206;23;20348;-89
2023/02/20 09:35:29;;;;;;;0.10;0.10;;;8.10;99.90;;;;;;6098719;23;20006;-89
2023/02/20 09:37:56;;;;;;;0.10;0.10;;;8.20;99.90;;;;;;6100073;23;20384;-86
2023/02/20 09:40:27;;;;;;;0.10;0.10;;;8.20;99.90;;;;;;6097997;23;20089;-89
2023/02/20 09:43:24;;;;;;;0.10;0.10;;;8.20;99.90;;;;;;6125413;23;20009;-89
2023/02/20 09:46:01;;;;;;;0.10;0.10;;;8.20;99.90;;;;;;6095918;23;20013;-89
2023/02/20 09:48:52;;;;;;;0.10;0.10;;;8.20;99.90;;;;;;6096061;23;20010;-90
2023/02/20 09:51:23;;;;;;;0.10;0.10;;;8.20;99.90;;;;;;6097131;23;20068;-89
2023/02/20 09:54:02;;;;;;;0.10;0.10;;;8.20;99.90;;;;;;6094968;23;19998;-89
2023/02/20 09:56:32;;;;;;;0.10;0.10;;;8.20;99.90;;;;;;6109489;23;20359;-89
2023/02/20 09:59:12;;;;;;;0.10;0.10;;;8.30;99.90;;;;;;6121390;23;20006;-89
2023/02/20 10:01:40;;;;;;;;;;;8.30;99.90;;;;;;6095454;23;20539;-89
2023/02/20 10:04:12;;;;;;;0.10;0.10;;;8.30;99.90;;;;;;6119771;23;19920;-89
2023/02/20 10:06:37;;;;;;;0.10;0.10;;;8.30;99.90;;;;;;6095573;23;20093;-89
2023/02/20 10:09:05;;;;;;;0.10;0.10;;;;;;;;;;6119200;23;20041;-89
2023/02/20 10:12:05;;;;;;;0.10;0.10;;;8.40;99.90;;;;;;6120485;23;20072;-88
2023/02/20 10:14:43;;;;;;;0.10;0.10;;;8.40;99.90;;;;;;6116391;23;20005;-88
2023/02/20 10:17:19;;;;;;;0.10;0.10;;;10.80;99.90;;;;;;6096884;23;20037;-90
2023/02/20 10:20:09;;;;;;;0.10;0.10;;;8.30;99.90;;;;;;6096582;23;20065;-89
2023/02/20 10:22:44;;;;;;;0.10;0.10;;;8.30;99.90;;;;;;6097453;23;20006;-89
2023/02/20 10:25:33;;;;;;;0.10;0.10;;;8.30;99.90;;;;;;6097020;23;20475;-89
2023/02/20 10:28:07;;;;;;;0.10;0.10;;;8.20;99.90;;;;;;6097272;23;20443;-89
2023/02/20 10:30:35;;;;;;;0.10;0.10;;;8.30;99.90;;;;;;6095580;23;20364;-89
2023/02/20 10:33:15;;;;;;;0.10;0.10;;;8.30;99.90;;;;;;6098080;23;20338;-88
2023/02/20 10:35:50;;;;;;;;;;;8.30;99.90;;;;;;6119599;23;20056;-90
2023/02/20 10:38:21;;;;;;;0.10;0.10;;;8.30;99.90;;;;;;6122167;23;19901;-88
2023/02/20 10:40:52;;;;;;;0.10;0.10;;;8.40;99.90;;;;;;6095911;23;20081;-89
2023/02/20 10:43:30;;;;;;;0.10;0.10;;;8.20;99.90;;;;;;6096959;23;20009;-89
2023/02/20 10:46:24;;;;;;;0.10;0.10;;;8.40;99.90;;;;;;6097321;23;20074;-89
2023/02/20 10:48:53;;;;;;;0.10;0.10;;;8.40;99.90;;;;;;6097443;23;20512;-89
2023/02/20 10:51:47;;;;;;;0.10;0.10;;;10.30;99.90;;;;;;6097118;23;20010;-90
2023/02/20 10:54:31;;;;;;;0.10;0.10;;;8.40;99.90;;;;;;6141109;23;20002;-89
2023/02/20 10:57:03;;;;;;;0.10;0.10;;;8.40;99.90;;;;;;6096418;23;20029;-90
2023/02/20 10:59:47;;;;;;;0.10;0.10;;;8.30;99.90;;;;;;6097825;23;20029;-89
2023/02/20 11:02:20;;;;;;;0.10;0.10;;;8.40;99.90;;;;;;6110804;23;20355;-89
2023/02/20 11:04:52;;;;;;;0.10;0.10;;;8.50;99.90;;;;;;6097945;23;20006;-89
2023/02/20 11:07:19;;;;;;;0.10;0.10;;;8.50;99.90;;;;;;6096615;23;20077;-89
2023/02/20 11:09:45;;;;;;;0.10;0.10;;;;;;;;;;6098311;23;20010;-89
2023/02/20 11:12:35;;;;;;;0.10;0.10;;;8.50;99.90;;;;;;6121849;23;20391;-89
2023/02/20 11:15:06;;;;;;;0.10;0.10;;;8.50;99.90;;;;;;6097627;23;20005;-89
2023/02/20 11:17:34;;;;;;;0.10;0.10;;;8.50;99.90;;;;;;6094268;23;20014;-87
2023/02/20 11:20:03;;;;;;;0.10;0.10;;;8.50;99.90;;;;;;6097112;23;20088;-90
2023/02/20 11:22:48;;;;;;;0.10;0.10;;;8.50;99.90;;;;;;6113396;23;20010;-89
2023/02/20 11:25:25;;;;;;;0.10;0.10;;;8.40;99.90;;;;;;6122085;23;20006;-89
2023/02/20 11:27:54;;;;;;;0.10;0.10;;;8.60;99.90;;;;;;6123127;23;20367;-89
2023/02/20 11:30:29;;;;;;;0.10;0.10;;;8.60;99.90;;;;;;6098195;23;20006;-89
2023/02/20 11:33:17;;;;;;;0.10;0.10;;;8.60;99.90;;;;;;6096482;23;20033;-90
2023/02/20 11:35:49;;;;;;;0.00;0.00;;;8.80;99.90;;;;;;6092944;23;20013;-90
2023/02/20 11:38:23;;;;;;;0.10;0.10;;;8.80;99.90;;;;;;6095816;23;20025;-89
2023/02/20 11:40:51;;;;;;;0.10;0.10;;;8.90;99.90;;;;;;6095962;23;20321;-90
2023/02/20 11:43:27;;;;;;;0.10;0.10;;;9.10;99.90;;;;;;6095826;23;20010;-89
2023/02/20 11:46:30;;;;;;;0.10;0.10;;;8.70;99.90;;;;;;6094622;23;20021;-89
2023/02/20 11:49:23;;;;;;;0.00;0.00;;;9.10;99.90;;;;;;6095712;23;20005;-89
2023/02/20 11:51:49;;;;;;;0.10;0.10;;;9.10;99.90;;;;;;6095002;23;20005;-89
2023/02/20 11:54:21;;;;;;;0.10;0.10;;;9.00;99.90;;;;;;6122883;23;20006;-90
2023/02/20 11:57:12;;;;;;;0.10;0.10;;;9.10;99.90;;;;;;6120950;23;20032;-90
2023/02/20 11:59:46;;;;;;;0.08;0.08;;;9.10;99.90;;;;;;6095150;23;20002;-89
2023/02/20 12:02:12;;;;;;;0.10;0.10;;;;;;;;;;6096401;23;20457;-90
2023/02/20 12:04:38;;;;;;;0.10;0.10;;;;;;;;;;6119018;23;20044;-88
2023/02/20 12:07:27;;;;;;;0.10;0.10;;;8.90;99.90;;;;;;6120316;23;20068;-90
2023/02/20 12:09:58;;;;;;;0.10;0.10;;;8.90;99.90;;;;;;6095178;23;20064;-90
2023/02/20 12:12:27;;;;;;;0.10;0.10;;;8.90;99.90;;;;;;6096506;23;20096;-89
2023/02/20 12:14:53;;;;;;;0.10;0.10;;;9.00;99.90;;;;;;6096326;23;20458;-89
2023/02/20 12:17:33;;;;;;;0.05;0.05;;;9.00;99.90;;;;;;6119704;23;20006;-89
2023/02/20 12:20:09;;;;;;;;;;;8.80;99.90;;;;;;6121677;23;20049;-90
2023/02/20 12:22:36;;;;;;;0.10;0.10;;;9.00;99.90;;;;;;6120816;23;19905;-89
2023/02/20 12:25:15;;;;;;;0.10;0.10;;;8.90;99.90;;;;;;6095274;23;20009;-89
2023/02/20 12:27:55;;;;;;;0.10;0.10;;;9.00;99.90;;;;;;6120310;23;20009;-89
2023/02/20 12:30:21;;;;;;;0.10;0.10;;;;;;;;;;6104132;23;20033;-90
2023/02/20 12:33:17;;;;;;;0.10;0.10;;;9.10;99.90;;;;;;6125793;23;20076;-90
2023/02/20 12:36:16;;;;;;;0.10;0.10;;;9.00;99.90;;;;;;6095398;23;20098;-89
2023/02/20 12:38:55;;;;;;;0.10;0.10;;;9.30;99.90;;;;;;6094881;23;20339;-91
2023/02/20 12:41:42;;;;;;;0.10;0.10;;;9.20;99.90;;;;;;6089419;23;20234;-88
2023/02/20 12:44:53;;;;;;;0.05;0.05;;;9.20;99.90;;;;;;6092254;23;20557;-90
2023/02/20 12:47:35;;;;;;;0.10;0.10;;;9.20;99.90;;;;;;6095356;23;20014;-89
2023/02/20 12:50:19;;;;;;;0.10;0.10;;;9.20;99.90;;;;;;6093270;23;20085;-87
2023/02/20 12:53:15;;;;;;;0.10;0.10;;;9.20;99.90;;;;;;6119546;23;20014;-89
2023/02/20 12:55:48;;;;;;;0.00;0.00;;;9.20;99.90;;;;;;6096999;23;20002;-89
2023/02/20 12:58:51;;;;;;;0.10;0.10;;;9.20;99.90;;;;;;6122781;23;20010;-89
2023/02/20 13:01:19;;;;;;;0.03;0.03;;;9.10;99.90;;;;;;6092010;23;20111;-89
2023/02/20 13:04:10;;;;;;;0.10;0.10;;;9.10;99.90;;;;;;6100788;23;20021;-86
2023/02/20 13:07:03;;;;;;;0.10;0.10;;;9.10;99.90;;;;;;6096404;23;20479;-89
2023/02/20 13:09:38;;;;;;;0.10;0.10;;;9.10;99.90;;;;;;6112230;23;20264;-90
2023/02/20 13:12:12;;;;;;;0.10;0.10;;;9.10;99.90;;;;;;6118430;23;20020;-90
2023/02/20 13:15:14;;;;;;;0.10;0.10;;;9.10;99.90;;;;;;6094185;23;20009;-89
2023/02/20 13:18:02;;;;;;;0.10;0.10;;;9.10;99.90;;;;;;6094929;23;20029;-90
2023/02/20 13:20:34;;;;;;;0.10;0.10;;;9.20;99.90;;;;;;6098955;23;20033;-89
2023/02/20 13:22:59;;;;;;;0.10;0.10;;;9.10;99.90;;;;;;6099587;23;20026;-89
2023/02/20 13:25:45;;;;;;;0.10;0.10;;;9.10;99.90;;;;;;6099666;23;20029;-89
2023/02/20 13:28:19;;;;;;;0.08;0.08;;;9.10;99.90;;;;;;6123902;23;20037;-89
2023/02/20 13:31:05;;;;;;;0.10;0.10;;;9.10;99.90;;;;;;6098250;23;20017;-89
2023/02/20 13:33:31;;;;;;;0.10;0.10;;;9.10;99.90;;;;;;6098595;23;20028;-89
2023/02/20 13:35:58;;;;;;;0.10;0.10;;;9.20;99.90;;;;;;6122012;23;20008;-89
2023/02/20 13:38:26;;;;;;;0.10;0.10;;;9.20;99.90;;;;;;6099378;23;20006;-89
2023/02/20 13:40:54;;;;;;;0.10;0.10;;;9.20;99.90;;;;;;6096822;23;20006;-89
2023/02/20 13:43:25;;;;;;;0.10;0.10;;;9.10;99.90;;;;;;6097995;23;19998;-90
2023/02/20 13:46:03;;;;;;;0.10;0.10;;;8.90;99.90;;;;;;6097009;23;20009;-89
2023/02/20 13:48:28;;;;;;;0.10;0.10;;;9.40;99.90;;;;;;6096039;23;19998;-89
2023/02/20 13:51:24;;;;;;;0.10;0.10;;;9.10;99.90;;;;;;6099120;23;20006;-89
2023/02/20 13:54:00;;;;;;;0.10;0.10;;;9.10;99.90;;;;;;6096894;23;20006;-90
2023/02/20 13:56:38;;;;;;;0.00;0.00;;;9.20;99.90;;;;;;6098980;23;20038;-89
2023/02/20 13:59:17;;;;;;;0.05;0.05;;;9.10;99.90;;;;;;6094153;23;20002;-89
2023/02/20 14:01:56;;;;;;;0.10;0.10;;;9.10;99.90;;;;;;6096660;23;20024;-88
2023/02/20 14:04:22;;;;;;;0.10;0.10;;;;;;;;;;6098532;23;20009;-89
2023/02/20 14:06:50;;;;;;;0.10;0.10;;;9.10;99.90;;;;;;6122152;23;20005;-90
2023/02/20 14:09:20;;;;;;;0.10;0.10;;;9.20;99.90;;;;;;6101246;23;20005;-90
2023/02/20 14:11:45;;;;;;;;;;;10.70;99.90;;;;;;6096137;23;20010;-89
2023/02/20 14:32:19;;;;;;;0.10;0.10;;;;;;;;;;6172539;23;20021;-92
2023/02/20 14:40:43;;;;;;;0.00;0.00;;;9.30;99.90;;;;;;6162166;23;20089;-90
2023/02/20 14:43:20;;;;;;;0.10;0.10;;;9.30;99.90;;;;;;6187356;23;20028;-91
2023/02/20 14:45:57;;;;;;;0.10;0.10;;;9.20;99.90;;;;;;6180442;23;20088;-89
2023/02/20 14:48:27;;;;;;;0.10;0.10;;;9.10;99.90;;;;;;6185016;23;20001;-94
2023/02/20 14:51:28;;;;;;;0.10;0.10;;;9.00;99.90;;;;;;6195393;23;20005;-92
2023/02/20 14:57:25;;;;;;;0.10;0.10;;;9.10;99.90;;;;;;6174018;23;20056;-93
2023/02/20 15:00:19;;;;;;;0.10;0.10;;;9.10;99.90;;;;;;6179167;23;19986;-95
2023/02/20 15:02:48;;;;;;;0.00;0.00;;;9.10;99.90;;;;;;6178909;23;20020;-94
2023/02/20 15:05:26;;;;;;;0.10;0.10;;;9.10;99.90;;;;;;6180107;23;20049;-95
2023/02/20 15:54:34;;;;;;;0.10;0.10;;;9.00;99.90;;;;;;6201001;23;20040;-90
2023/02/20 15:57:15;;;;;;;0.10;0.10;;;9.10;99.90;;;;;;6177106;23;20013;-91
2023/02/20 15:59:50;;;;;;;0.10;0.10;;;9.10;99.90;;;;;;6176921;23;20024;-93
2023/02/20 16:02:23;;;;;;;0.10;0.10;;;9.10;99.90;;;;;;6200764;23;20012;-92
2023/02/20 16:15:15;;;;;;;0.10;0.10;;;9.10;99.90;;;;;;6156361;23;20056;-93
2023/02/20 16:17:41;;;;;;;0.10;0.10;;;8.80;99.90;;;;;;6154604;23;20052;-92
2023/02/20 16:20:33;;;;;;;0.10;0.10;;;8.90;99.90;;;;;;6150799;23;20009;-91
2023/02/20 16:22:59;;;;;;;0.03;0.03;;;;;;;;;;6171047;23;20008;-92
2023/02/20 16:25:25;;;;;;;0.10;0.10;;;;;;;;;;6148166;23;20307;-92
2023/02/20 16:27:55;;;;;;;0.05;0.05;;;9.00;99.90;;;;;;6145871;23;20032;-92
2023/02/20 16:30:28;;;;;;;0.10;0.10;;;8.90;99.90;;;;;;6148593;23;20016;-93
2023/02/20 16:32:54;;;;;;;0.10;0.10;;;;;;;;;;6147856;23;20127;-91
2023/02/20 16:35:20;;;;;;;0.10;0.10;;;;;;;;;;6149253;23;20048;-92
2023/02/20 16:37:45;;;;;;;0.00;0.00;;;9.00;99.90;;;;;;6149175;23;20021;-92
2023/02/20 16:40:12;;;;;;;0.10;0.10;;;8.70;99.90;;;;;;6147106;23;20297;-92
2023/02/20 16:42:38;;;;;;;0.10;0.10;;;;;;;;;;6148319;23;20018;-92
2023/02/20 16:45:22;;;;;;;0.10;0.10;;;8.90;99.90;;;;;;6149048;23;20013;-91
2023/02/20 16:47:50;;;;;;;0.10;0.10;;;8.60;99.90;;;;;;6172711;23;20056;-91
2023/02/20 16:50:19;;;;;;;0.10;0.10;;;8.90;99.90;;;;;;6147444;23;20009;-92
2023/02/20 16:52:46;;;;;;;0.00;0.00;;;8.80;99.90;;;;;;6148887;23;20272;-91
2023/02/20 16:55:17;;;;;;;0.10;0.10;;;8.70;99.90;;;;;;6146950;23;20036;-91
2023/02/20 16:57:42;;;;;;;0.05;0.05;;;8.80;99.90;;;;;;6147929;23;20029;-91
2023/02/20 17:00:09;;;;;;;0.10;0.10;;;;;;;;;;6148464;23;20457;-91
2023/02/20 17:02:34;;;;;;;0.10;0.10;;;8.70;99.90;;;;;;6148652;23;20064;-91
2023/02/20 17:05:00;;;;;;;0.10;0.10;;;8.70;99.90;;;;;;6147132;23;20025;-91
2023/02/20 17:07:27;;;;;;;0.10;0.10;;;;;;;;;;6147288;23;20025;-91
2023/02/20 17:09:52;;;;;;;0.10;0.10;;;;;;;;;;6147439;23;20394;-91
2023/02/20 17:12:21;;;;;;;0.10;0.10;;;8.80;99.90;;;;;;6148731;23;20009;-90
2023/02/20 17:14:47;;;;;;;0.10;0.10;;;;;;;;;;6148504;23;20033;-90
2023/02/20 17:17:14;;;;;;;0.10;0.10;;;;;;;;;;6148250;23;20006;-92
2023/02/20 17:22:51;;;;;;;0.10;0.10;;;8.90;99.90;;;;;;6153923;23;20204;-90
2023/02/20 17:25:20;;;;;;;0.10;0.10;;;8.80;99.90;;;;;;6173175;23;20013;-90
2023/02/20 17:27:46;;;;;;;0.10;0.10;;;;;;;;;;6172107;23;20005;-91
2023/02/20 17:30:13;;;;;;;0.10;0.10;;;8.20;99.90;;;;;;6148895;23;20013;-90
2023/02/20 17:32:39;;;;;;;0.10;0.10;;;8.80;99.90;;;;;;6150500;23;20006;-90
2023/02/20 17:35:06;;;;;;;0.10;0.10;;;9.40;99.90;;;;;;6149598;23;20006;-91
2023/02/20 17:37:32;;;;;;;0.10;0.10;;;8.70;99.90;;;;;;6150175;23;20378;-91
2023/02/20 17:39:59;;;;;;;0.10;0.10;;;8.90;99.90;;;;;;6146627;23;20006;-91
2023/02/20 17:42:25;;;;;;;0.10;0.10;;;;;;;;;;6147799;23;20013;-91
2023/02/20 17:44:51;;;;;;;0.10;0.10;;;;;;;;;;6147720;23;20323;-90
2023/02/20 17:47:17;;;;;;;0.00;0.00;;;;;;;;;;6146776;23;20402;-91
2023/02/20 17:49:43;;;;;;;0.03;0.03;;;;;;;;;;6147596;23;20002;-91
2023/02/20 17:52:11;;;;;;;0.10;0.10;;;8.80;99.90;;;;;;6148606;23;20057;-91
2023/02/20 17:54:39;;;;;;;0.10;0.10;;;;;;;;;;6174462;23;20002;-92
2023/02/20 17:57:05;;;;;;;0.10;0.10;;;;;;;;;;6152413;23;19997;-91
2023/02/20 17:59:36;;;;;;;0.00;0.00;;;8.90;99.90;;;;;;6151661;23;20001;-91
2023/02/20 18:02:02;;;;;;;0.10;0.10;;;;;;;;;;6150815;23;20058;-91
2023/02/20 18:04:31;;;;;;;0.10;0.10;;;8.80;99.90;;;;;;6151484;23;20447;-91
2023/02/20 18:06:56;;;;;;;0.10;0.10;;;11.00;99.90;;;;;;6149208;23;20002;-91
2023/02/20 18:09:22;;;;;;;0.10;0.10;;;;;;;;;;6151309;23;20010;-91
2023/02/20 18:11:51;;;;;;;0.10;0.10;;;;;;;;;;6148051;23;20402;-90
2023/02/20 18:14:17;;;;;;;0.10;0.10;;;;;;;;;;6152023;23;20020;-92
2023/02/20 18:16:43;;;;;;;0.10;0.10;;;;;;;;;;6149642;23;20002;-91
2023/02/20 18:19:12;;;;;;;0.00;0.00;;;8.90;99.90;;;;;;6151348;23;20002;-90
2023/02/20 18:21:40;;;;;;;0.10;0.10;;;9.00;99.90;;;;;;6175100;23;20084;-91
2023/02/20 18:24:10;;;;;;;0.10;0.10;;;8.90;99.90;;;;;;6152932;23;20033;-92
2023/02/20 18:26:36;;;;;;;0.00;0.00;;;;;;;;;;6177069;23;20014;-91
2023/02/20 18:29:01;;;;;;;0.10;0.10;;;8.90;99.90;;;;;;6179369;23;20080;-91
2023/02/20 18:31:30;;;;;;;0.10;0.10;;;8.90;99.90;;;;;;6156240;23;20013;-90
2023/02/20 18:33:56;;;;;;;0.10;0.10;;;;;;;;;;6155715;23;20005;-91
2023/02/20 18:36:22;;;;;;;0.10;0.10;;;;;;;;;;6154312;23;20033;-90
2023/02/20 18:38:48;;;;;;;0.10;0.10;;;;;;;;;;6156556;23;20091;-91
2023/02/20 18:41:14;;;;;;;0.10;0.10;;;;;;;;;;6153691;23;20302;-91
2023/02/20 18:43:44;;;;;;;0.10;0.10;;;8.90;99.90;;;;;;6154022;23;20435;-91
2023/02/20 18:46:50;;;;;;;0.10;0.10;;;9.00;99.90;;;;;;6151811;23;20016;-91
2023/02/20 18:49:16;;;;;;;0.10;0.10;;;;;;;;;;6152914;23;20262;-89
2023/02/20 18:51:43;;;;;;;0.10;0.10;;;;;;;;;;6153711;23;20099;-91
2023/02/20 18:54:15;;;;;;;0.10;0.10;;;8.90;99.90;;;;;;6152761;23;19998;-90
2023/02/20 18:56:45;;;;;;;0.10;0.10;;;8.90;99.90;;;;;;6152539;23;20002;-91
2023/02/20 18:59:10;;;;;;;0.10;0.10;;;;;;;;;;6151534;23;20001;-91
2023/02/20 19:01:40;;;;;;;0.10;0.10;;;9.00;99.90;;;;;;6152695;23;20006;-91
2023/02/20 19:04:57;;;;;;;0.10;0.10;;;8.90;99.90;;;;;;6147194;23;20085;-90
2023/02/20 19:07:23;;;;;;;0.10;0.10;;;;;;;;;;6151057;23;20028;-90
2023/02/20 19:09:53;;;;;;;0.10;0.10;;;9.00;99.90;;;;;;6149164;23;20111;-90
2023/02/20 19:12:19;;;;;;;0.10;0.10;;;;;;;;;;6173719;23;20002;-89
2023/02/20 19:14:45;;;;;;;0.10;0.10;;;;;;;;;;6164664;23;20010;-91
2023/02/20 19:17:11;;;;;;;0.08;0.08;;;8.90;99.90;;;;;;6147237;23;20001;-91
2023/02/20 19:19:40;;;;;;;0.10;0.10;;;;;;;;;;6147195;23;19997;-90
2023/02/20 19:22:06;;;;;;;0.10;0.10;;;;;;;;;;6150069;23;20013;-89
2023/02/20 19:24:32;;;;;;;0.10;0.10;;;;;;;;;;6148684;23;20006;-90
2023/02/20 19:26:57;;;;;;;0.10;0.10;;;;;;;;;;6147131;23;20009;-91
2023/02/20 19:29:23;;;;;;;0.10;0.10;;;9.00;99.90;;;;;;6149188;23;20096;-90
2023/02/20 19:31:48;;;;;;;0.10;0.10;;;8.90;99.90;;;;;;6172926;23;20031;-92
2023/02/20 19:34:14;;;;;;;0.10;0.10;;;10.40;99.90;;;;;;6147598;23;20001;-91
2023/02/20 19:36:41;;;;;;;0.10;0.10;;;;;;;;;;6146392;23;20005;-90
2023/02/20 19:39:08;;;;;;;0.10;0.10;;;;;;;;;;6147600;23;20093;-90
2023/02/20 19:41:35;;;;;;;0.10;0.10;;;;;;;;;;6147483;23;20009;-90
2023/02/20 19:44:01;;;;;;;0.00;0.00;;;;;;;;;;6146204;23;20064;-90
2023/02/20 19:46:30;;;;;;;0.10;0.10;;;9.00;99.90;;;;;;6146942;23;20005;-91
2023/02/20 19:48:56;;;;;;;0.10;0.10;;;;;;;;;;6174385;23;20001;-90
2023/02/20 19:51:22;;;;;;;0.10;0.10;;;;;;;;;;6146722;23;20245;-90
2023/02/20 19:53:48;;;;;;;0.00;0.00;;;;;;;;;;6172773;23;20099;-91
2023/02/20 19:56:14;;;;;;;0.10;0.10;;;;;;;;;;6172193;23;20012;-90
2023/02/20 19:58:40;;;;;;;0.03;0.03;;;8.90;99.90;;;;;;6149659;23;20347;-91
2023/02/20 20:01:16;;;;;;;0.00;0.00;;;8.90;99.90;;;;;;6171208;23;20005;-90
2023/02/20 20:03:43;;;;;;;0.10;0.10;;;9.00;99.90;;;;;;6141459;23;20080;-90
2023/02/20 20:06:11;;;;;;;0.10;0.10;;;9.00;99.90;;;;;;6147343;23;20002;-90
2023/02/20 20:08:37;;;;;;;0.10;0.10;;;;;;;;;;6146593;23;20001;-91
2023/02/20 20:11:03;;;;;;;0.10;0.10;;;9.10;99.90;;;;;;6145143;23;20001;-90
2023/02/20 20:13:29;;;;;;;0.10;0.10;;;;;;;;;;6144154;23;20767;-90
2023/02/20 20:15:55;;;;;;;0.10;0.10;;;9.00;99.90;;;;;;6146601;23;20092;-90
2023/02/20 20:18:21;;;;;;;0.10;0.10;;;;;;;;;;6173223;23;20008;-91
2023/02/20 20:20:46;;;;;;;0.10;0.10;;;9.00;99.90;;;;;;6146388;23;20098;-90
2023/02/20 20:23:13;;;;;;;0.00;0.00;;;;;;;;;;6147935;23;20005;-91
2023/02/20 20:25:39;;;;;;;0.10;0.10;;;9.00;99.90;;;;;;6148215;23;20006;-91
2023/02/20 20:28:06;;;;;;;0.10;0.10;;;9.10;99.90;;;;;;6147516;23;20017;-91
2023/02/20 20:30:32;;;;;;;0.10;0.10;;;9.00;99.90;;;;;;6146424;23;20005;-89
2023/02/20 20:32:58;;;;;;;0.10;0.10;;;;;;;;;;6147967;23;20014;-91
2023/02/20 20:35:26;;;;;;;0.00;0.00;;;9.00;99.90;;;;;;6144860;23;20423;-90
2023/02/20 20:37:52;;;;;;;0.10;0.10;;;;;;;;;;6147888;23;20316;-90
2023/02/20 20:40:18;;;;;;;0.10;0.10;;;9.10;99.90;;;;;;6148432;23;20013;-90
2023/02/20 20:42:44;;;;;;;0.05;0.05;;;;;;;;;;6147524;23;20010;-91